San Rafael, CA

5:17 AM PST on February 28, 2015 (GMT -0800)
Metro Oakland International | Change Station
CLOSE
Current Station
Airport
Location: Oakland,
Elevation: 7 ft
Nearby Weather Stations

Elev 7 ft 37.72 °N, 122.23 °W | Updated 24 minutes ago

Partly Cloudy
Partly Cloudy
51 °F
Feels Like 51 °F
N
15
Wind Variable Wind from West

Today
High -- | Low -- °F
--% Chance of Precip.
Yesterday
High -- | Low -- °F
Precip. -- in
6:43 AM 6:02 PM
Waxing Gibbous, 77% visible
Pressure 29.73 in
Visibility 10.0 miles
Clouds Few 1700 ft
Dew Point 43 °F
Humidity 74%
Rainfall 0.00 in
Snow Depth Not available.
UV 0 out of 12
Pollen 7.20 out of 12
Air Quality Not available.
Flu Activity Not available.
METAR KOAK 281253Z 28013KT 10SM FEW017 11/06 A2973 RMK AO2 SLP066 T01060061

More Conditions Fewer Conditions

Pressure 29.73 in
Visibility 10.0 miles
Clouds Few 1700 ft
Dew Point 43 °F
Humidity 74%
Rainfall 0.00 in
Snow Depth Not available.
UV 0 out of 12
Pollen 7.20 out of 12
Air Quality Not available.
Flu Activity Not available.
METAR KOAK 281253Z 28013KT 10SM FEW017 11/06 A2973 RMK AO2 SLP066 T01060061

More Conditions Fewer Conditions

10-Day Weather Forecast

Almanac

Astronomy

Feb. 28, 2015 Rise Set
Actual Time
Civil Twilight
Nautical Twilight
Astronomical Twilight
Moon
Length of Visible Light
Length of Day
Tomorrow will be .
, % of the Moon is Illuminated

Today's Extremes

State Highs State Lows

Community

WunderPhotos

Upload Photos

1,801,004 photos uploaded!

WunderBlogs® & News

Nearby

Air Quality

  Air Quality AQ Index Pollutant
Not available.

Snow Depth

Station Depth Elevation

Earthquake Activity

City Distance Mag. Time & Date
Minimum magnitude displayed is 2.5.

Coastal Water Temperatures

Place Temperature

Nearby Weather Stations